Aviation Digital Data Service (ADDS)

Output produced by METARs form (1139 UTC 25 June 2019)
found at http://www.aviationweather.gov/metar/data/
 
METAR text: GUCY 251000Z 09004KT 9999 SCT015 BKN100 28/24 Q1013 NOSIG
Conditions at: GUCY (CONAKRY/GBESSIA , GN) observed 1000 UTC 25 June 2019
Temperature: 28.0°C (82°F)
Dewpoint: 24.0°C (75°F) [RH = 79%]
Pressure (altimeter): 29.91 inches Hg (1013.0 mb)
Winds: from the E (90 degrees) at 5 MPH (4 knots; 2.1 m/s)
Visibility: 6 or more miles (10+ km)
Ceiling: 10000 feet AGL
Clouds: scattered clouds at 1500 feet AGL
broken clouds at 10000 feet AGL
Weather: no significant weather observed at this time

METAR text: GUCY 250900Z 09004KT 9999 BKN013 BKN100 26/23 Q1014 NOSIG
Conditions at: GUCY (CONAKRY/GBESSIA , GN) observed 0900 UTC 25 June 2019
Temperature: 26.0°C (79°F)
Dewpoint: 23.0°C (73°F) [RH = 84%]
Pressure (altimeter): 29.94 inches Hg (1014.0 mb)
Winds: from the E (90 degrees) at 5 MPH (4 knots; 2.1 m/s)
Visibility: 6 or more miles (10+ km)
Ceiling: 1300 feet AGL
Clouds: broken clouds at 1300 feet AGL
broken clouds at 10000 feet AGL
Weather: no significant weather observed at this time

METAR text: GUCY 250800Z 00000KT 9999 SCT015 BKN110 25/24 Q1013 NOSIG
Conditions at: GUCY (CONAKRY/GBESSIA , GN) observed 0800 UTC 25 June 2019
Temperature: 25.0°C (77°F)
Dewpoint: 24.0°C (75°F) [RH = 94%]
Pressure (altimeter): 29.91 inches Hg (1013.0 mb)
Winds: calm
Visibility: 6 or more miles (10+ km)
Ceiling: 11000 feet AGL
Clouds: scattered clouds at 1500 feet AGL
broken clouds at 11000 feet AGL
Weather: no significant weather observed at this time

METAR text: GUCY 250700Z 36004KT 9999 SCT015 BKN110 24/24 Q1012 NOSIG
Conditions at: GUCY (CONAKRY/GBESSIA , GN) observed 0700 UTC 25 June 2019
Temperature: 24.0°C (75°F)
Dewpoint: 24.0°C (75°F) [RH = 100%]
Pressure (altimeter): 29.88 inches Hg (1012.0 mb)
Winds: from the N (360 degrees) at 5 MPH (4 knots; 2.1 m/s)
Visibility: 6 or more miles (10+ km)
Ceiling: 11000 feet AGL
Clouds: scattered clouds at 1500 feet AGL
broken clouds at 11000 feet AGL
Weather: no significant weather observed at this time

METAR text: GUCY 250600Z 00000KT 9999 BKN015 FEW023CB BKN110 23/23 Q1011 CB-S-SW NOSIG
Conditions at: GUCY (CONAKRY/GBESSIA , GN) observed 0600 UTC 25 June 2019
Temperature: 23.0°C (73°F)
Dewpoint: 23.0°C (73°F) [RH = 100%]
Pressure (altimeter): 29.85 inches Hg (1011.0 mb)
Winds: calm
Visibility: 6 or more miles (10+ km)
Ceiling: 1500 feet AGL
Clouds: broken clouds at 1500 feet AGL
few clouds at 2300 feet AGL
broken clouds at 11000 feet AGL
Weather: no significant weather observed at this time

METAR text: GUCY 250500Z 00000KT 9999 BKN015 FEW023CB BKN110 23/23 Q1011 CB/S RETS NOSIG
Conditions at: GUCY (CONAKRY/GBESSIA , GN) observed 0500 UTC 25 June 2019
Temperature: 23.0°C (73°F)
Dewpoint: 23.0°C (73°F) [RH = 100%]
Pressure (altimeter): 29.85 inches Hg (1011.0 mb)
Winds: calm
Visibility: 6 or more miles (10+ km)
Ceiling: 1500 feet AGL
Clouds: broken clouds at 1500 feet AGL
few clouds at 2300 feet AGL
broken clouds at 11000 feet AGL
Weather: no significant weather observed at this time

METAR text: GUCY 250400Z 00000KT 9999 TS BKN015 FEW023CB BKN110 22/22 Q1011 CB/NE/S NOSIG
Conditions at: GUCY (CONAKRY/GBESSIA , GN) observed 0400 UTC 25 June 2019
Temperature: 22.0°C (72°F)
Dewpoint: 22.0°C (72°F) [RH = 100%]
Pressure (altimeter): 29.85 inches Hg (1011.0 mb)
Winds: calm
Visibility: 6 or more miles (10+ km)
Ceiling: 1500 feet AGL
Clouds: broken clouds at 1500 feet AGL
few clouds at 2300 feet AGL
broken clouds at 11000 feet AGL
Weather: TS  (thunderstorm)

METAR text: GUCY 250000Z 34006KT 8000 -TSRA BKN013 FEW023CB BKN100 24/24 Q1013 CB/N/NW/NE/E/SE/S NOSIG
Conditions at: GUCY (CONAKRY/GBESSIA , GN) observed 0000 UTC 25 June 2019
Temperature: 24.0°C (75°F)
Dewpoint: 24.0°C (75°F) [RH = 100%]
Pressure (altimeter): 29.91 inches Hg (1013.0 mb)
Winds: from the NNW (340 degrees) at 7 MPH (6 knots; 3.1 m/s)
Visibility: 5 miles ( 8 km)
Ceiling: 1300 feet AGL
Clouds: broken clouds at 1300 feet AGL
few clouds at 2300 feet AGL
broken clouds at 10000 feet AGL
Weather: -TSRA  (light rain associated with thunderstorm(s))

METAR text: GUCY 242200Z 00000KT 9999 SCT015 FEW023CB BKN110 28/26 Q1014 CB-E-NE NOSIG
Conditions at: GUCY (CONAKRY/GBESSIA , GN) observed 2200 UTC 24 June 2019
Temperature: 28.0°C (82°F)
Dewpoint: 26.0°C (79°F) [RH = 89%]
Pressure (altimeter): 29.94 inches Hg (1014.0 mb)
Winds: calm
Visibility: 6 or more miles (10+ km)
Ceiling: 11000 feet AGL
Clouds: scattered clouds at 1500 feet AGL
few clouds at 2300 feet AGL
broken clouds at 11000 feet AGL
Weather: no significant weather observed at this time

METAR text: GUCY 242100Z 26008KT 9999 BKN015 BKN110 28/26 Q1013 NOSIG
Conditions at: GUCY (CONAKRY/GBESSIA , GN) observed 2100 UTC 24 June 2019
Temperature: 28.0°C (82°F)
Dewpoint: 26.0°C (79°F) [RH = 89%]
Pressure (altimeter): 29.91 inches Hg (1013.0 mb)
Winds: from the W (260 degrees) at 9 MPH (8 knots; 4.1 m/s)
Visibility: 6 or more miles (10+ km)
Ceiling: 1500 feet AGL
Clouds: broken clouds at 1500 feet AGL
broken clouds at 11000 feet AGL
Weather: no significant weather observed at this time

METAR text: GUCY 241900Z 28008KT 9999 TS BKN013 FEW023CB SCT110 28/26 Q1011 CB/S/SE/NE/N RERA NOSIG
Conditions at: GUCY (CONAKRY/GBESSIA , GN) observed 1900 UTC 24 June 2019
Temperature: 28.0°C (82°F)
Dewpoint: 26.0°C (79°F) [RH = 89%]
Pressure (altimeter): 29.85 inches Hg (1011.0 mb)
Winds: from the W (280 degrees) at 9 MPH (8 knots; 4.1 m/s)
Visibility: 6 or more miles (10+ km)
Ceiling: 1300 feet AGL
Clouds: broken clouds at 1300 feet AGL
few clouds at 2300 feet AGL
scattered clouds at 11000 feet AGL
Weather: TS  (thunderstorm)

METAR text: GUCY 241800Z 28010KT 5000 TSRA BKN013 FEW023CB BKN100 29/25 Q1012 CB/NE/SE/E NOSIG
Conditions at: GUCY (CONAKRY/GBESSIA , GN) observed 1800 UTC 24 June 2019
Temperature: 29.0°C (84°F)
Dewpoint: 25.0°C (77°F) [RH = 79%]
Pressure (altimeter): 29.88 inches Hg (1012.0 mb)
Winds: from the W (280 degrees) at 12 MPH (10 knots; 5.1 m/s)
Visibility: 3 miles ( 5 km)
Ceiling: 1300 feet AGL
Clouds: broken clouds at 1300 feet AGL
few clouds at 2300 feet AGL
broken clouds at 10000 feet AGL
Weather: TSRA  (rain associated with thunderstorm(s))

METAR text: GUCY 241700Z 28012KT 9999 TS SCT015 FEW023CB 30/25 Q1011 CB/N/NE/E NOSIG
Conditions at: GUCY (CONAKRY/GBESSIA , GN) observed 1700 UTC 24 June 2019
Temperature: 30.0°C (86°F)
Dewpoint: 25.0°C (77°F) [RH = 75%]
Pressure (altimeter): 29.85 inches Hg (1011.0 mb)
Winds: from the W (280 degrees) at 14 MPH (12 knots; 6.2 m/s)
Visibility: 6 or more miles (10+ km)
Ceiling: at least 12,000 feet AGL
Clouds: scattered clouds at 1500 feet AGL
few clouds at 2300 feet AGL
Weather: TS  (thunderstorm)

METAR text: GUCY 241600Z 28012KT 9999 SCT015 FEW023CB 30/25 Q1011 CB/E NOSIG
Conditions at: GUCY (CONAKRY/GBESSIA , GN) observed 1600 UTC 24 June 2019
Temperature: 30.0°C (86°F)
Dewpoint: 25.0°C (77°F) [RH = 75%]
Pressure (altimeter): 29.85 inches Hg (1011.0 mb)
Winds: from the W (280 degrees) at 14 MPH (12 knots; 6.2 m/s)
Visibility: 6 or more miles (10+ km)
Ceiling: at least 12,000 feet AGL
Clouds: scattered clouds at 1500 feet AGL
few clouds at 2300 feet AGL
Weather: no significant weather observed at this time

METAR text: GUCY 241500Z 28012KT 9999 SCT015 31/23 Q1011 NOSIG
Conditions at: GUCY (CONAKRY/GBESSIA , GN) observed 1500 UTC 24 June 2019
Temperature: 31.0°C (88°F)
Dewpoint: 23.0°C (73°F) [RH = 63%]
Pressure (altimeter): 29.85 inches Hg (1011.0 mb)
Winds: from the W (280 degrees) at 14 MPH (12 knots; 6.2 m/s)
Visibility: 6 or more miles (10+ km)
Ceiling: at least 12,000 feet AGL
Clouds: scattered clouds at 1500 feet AGL
Weather: no significant weather observed at this time

METAR text: GUCY 241300Z 28008KT 9999 SCT015 30/24 Q1013 NOSIG
Conditions at: GUCY (CONAKRY/GBESSIA , GN) observed 1300 UTC 24 June 2019
Temperature: 30.0°C (86°F)
Dewpoint: 24.0°C (75°F) [RH = 70%]
Pressure (altimeter): 29.91 inches Hg (1013.0 mb)
Winds: from the W (280 degrees) at 9 MPH (8 knots; 4.1 m/s)
Visibility: 6 or more miles (10+ km)
Ceiling: at least 12,000 feet AGL
Clouds: scattered clouds at 1500 feet AGL
Weather: no significant weather observed at this time

METAR text: GUCY 241200Z 36008KT 9999 FEW015 30/24 Q1013 NOSIG
Conditions at: GUCY (CONAKRY/GBESSIA , GN) observed 1200 UTC 24 June 2019
Temperature: 30.0°C (86°F)
Dewpoint: 24.0°C (75°F) [RH = 70%]
Pressure (altimeter): 29.91 inches Hg (1013.0 mb)
Winds: from the N (360 degrees) at 9 MPH (8 knots; 4.1 m/s)
Visibility: 6 or more miles (10+ km)
Ceiling: at least 12,000 feet AGL
Clouds: few clouds at 1500 feet AGL
Weather: no significant weather observed at this time

METAR text: GUCY 241000Z 36008KT 9999 SCT015 SCT110 29/24 Q1014 NOSIG
Conditions at: GUCY (CONAKRY/GBESSIA , GN) observed 1000 UTC 24 June 2019
Temperature: 29.0°C (84°F)
Dewpoint: 24.0°C (75°F) [RH = 74%]
Pressure (altimeter): 29.94 inches Hg (1014.0 mb)
Winds: from the N (360 degrees) at 9 MPH (8 knots; 4.1 m/s)
Visibility: 6 or more miles (10+ km)
Ceiling: at least 12,000 feet AGL
Clouds: scattered clouds at 1500 feet AGL
scattered clouds at 11000 feet AGL
Weather: no significant weather observed at this time

METAR text: GUCY 240900Z 10008KT 9999 SCT015 BKN110 28/24 Q1013 NOSIG
Conditions at: GUCY (CONAKRY/GBESSIA , GN) observed 0900 UTC 24 June 2019
Temperature: 28.0°C (82°F)
Dewpoint: 24.0°C (75°F) [RH = 79%]
Pressure (altimeter): 29.91 inches Hg (1013.0 mb)
Winds: from the E (100 degrees) at 9 MPH (8 knots; 4.1 m/s)
Visibility: 6 or more miles (10+ km)
Ceiling: 11000 feet AGL
Clouds: scattered clouds at 1500 feet AGL
broken clouds at 11000 feet AGL
Weather: no significant weather observed at this time

METAR text: GUCY 240800Z 35008KT 9999 SCT015 SCT110 27/25 Q1013 NOSIG
Conditions at: GUCY (CONAKRY/GBESSIA , GN) observed 0800 UTC 24 June 2019
Temperature: 27.0°C (81°F)
Dewpoint: 25.0°C (77°F) [RH = 89%]
Pressure (altimeter): 29.91 inches Hg (1013.0 mb)
Winds: from the N (350 degrees) at 9 MPH (8 knots; 4.1 m/s)
Visibility: 6 or more miles (10+ km)
Ceiling: at least 12,000 feet AGL
Clouds: scattered clouds at 1500 feet AGL
scattered clouds at 11000 feet AGL
Weather: no significant weather observed at this time

METAR text: GUCY 240700Z 35004KT 9999 BKN015 BKN110 27/26 Q1012 NOSIG
Conditions at: GUCY (CONAKRY/GBESSIA , GN) observed 0700 UTC 24 June 2019
Temperature: 27.0°C (81°F)
Dewpoint: 26.0°C (79°F) [RH = 94%]
Pressure (altimeter): 29.88 inches Hg (1012.0 mb)
Winds: from the N (350 degrees) at 5 MPH (4 knots; 2.1 m/s)
Visibility: 6 or more miles (10+ km)
Ceiling: 1500 feet AGL
Clouds: broken clouds at 1500 feet AGL
broken clouds at 11000 feet AGL
Weather: no significant weather observed at this time

METAR text: GUCY 240600Z 35004KT 9999 BKN015 BKN110 27/25 Q1012 NOSIG
Conditions at: GUCY (CONAKRY/GBESSIA , GN) observed 0600 UTC 24 June 2019
Temperature: 27.0°C (81°F)
Dewpoint: 25.0°C (77°F) [RH = 89%]
Pressure (altimeter): 29.88 inches Hg (1012.0 mb)
Winds: from the N (350 degrees) at 5 MPH (4 knots; 2.1 m/s)
Visibility: 6 or more miles (10+ km)
Ceiling: 1500 feet AGL
Clouds: broken clouds at 1500 feet AGL
broken clouds at 11000 feet AGL
Weather: no significant weather observed at this time

METAR text: GUCY 240500Z 32004KT 9999 BKN015 BKN110 27/24 Q1012 NOSIG
Conditions at: GUCY (CONAKRY/GBESSIA , GN) observed 0500 UTC 24 June 2019
Temperature: 27.0°C (81°F)
Dewpoint: 24.0°C (75°F) [RH = 84%]
Pressure (altimeter): 29.88 inches Hg (1012.0 mb)
Winds: from the NW (320 degrees) at 5 MPH (4 knots; 2.1 m/s)
Visibility: 6 or more miles (10+ km)
Ceiling: 1500 feet AGL
Clouds: broken clouds at 1500 feet AGL
broken clouds at 11000 feet AGL
Weather: no significant weather observed at this time

METAR text: GUCY 240400Z 35004KT 9999 BKN015 BKN110 26/25 Q1012 NOSIG
Conditions at: GUCY (CONAKRY/GBESSIA , GN) observed 0400 UTC 24 June 2019
Temperature: 26.0°C (79°F)
Dewpoint: 25.0°C (77°F) [RH = 94%]
Pressure (altimeter): 29.88 inches Hg (1012.0 mb)
Winds: from the N (350 degrees) at 5 MPH (4 knots; 2.1 m/s)
Visibility: 6 or more miles (10+ km)
Ceiling: 1500 feet AGL
Clouds: broken clouds at 1500 feet AGL
broken clouds at 11000 feet AGL
Weather: no significant weather observed at this time

METAR text: GUCY 240200Z 32006KT 9999 BKN013 BKN100 26/25 Q1013 NOSIG
Conditions at: GUCY (CONAKRY/GBESSIA , GN) observed 0200 UTC 24 June 2019
Temperature: 26.0°C (79°F)
Dewpoint: 25.0°C (77°F) [RH = 94%]
Pressure (altimeter): 29.91 inches Hg (1013.0 mb)
Winds: from the NW (320 degrees) at 7 MPH (6 knots; 3.1 m/s)
Visibility: 6 or more miles (10+ km)
Ceiling: 1300 feet AGL
Clouds: broken clouds at 1300 feet AGL
broken clouds at 10000 feet AGL
Weather: no significant weather observed at this time

METAR text: GUCY 240000Z 00000KT 9999 BKN015 BKN110 27/24 Q1015 NOSIG
Conditions at: GUCY (CONAKRY/GBESSIA , GN) observed 0000 UTC 24 June 2019
Temperature: 27.0°C (81°F)
Dewpoint: 24.0°C (75°F) [RH = 84%]
Pressure (altimeter): 29.97 inches Hg (1015.0 mb)
Winds: calm
Visibility: 6 or more miles (10+ km)
Ceiling: 1500 feet AGL
Clouds: broken clouds at 1500 feet AGL
broken clouds at 11000 feet AGL
Weather: no significant weather observed at this time

Forecast for: GUCY (CONAKRY/GBESSIA , GN)
Text: TAF GUCY 250500Z 2506/2612 26006KT 9999 SCT015 SCT116
Forecast period: 0600 UTC 25 June 2019 to 1200 UTC 26 June 2019
Forecast type: FROM: standard forecast or significant change
Winds: from the W (260 degrees) at 7 MPH (6 knots; 3.1 m/s)
Visibility: 6 or more miles 10+ km)
Ceiling: at least 12,000 feet AGL
Clouds: scattered clouds at 1500 feet AGL
scattered clouds at 11600 feet AGL
Weather: no significant weather forecast for this period
Text: BECMG 2506/2510 5000 -RA BKN013 FEW023CB SCT100
Forecast period: 0600 UTC 25 June 2019 to 1200 UTC 26 June 2019
Forecast type: BECOMING: Conditions expected to become as follows by 1000 UTC 25 June 2019
Winds: from the W (260 degrees) at 7 MPH (6 knots; 3.1 m/s)
Visibility: 3 miles (5 km)
Ceiling: 1300 feet AGL
Clouds: broken clouds at 1300 feet AGL
few clouds at 2300 feet AGL
scattered clouds at 10000 feet AGL
Weather: -RA  (light rain)
Text: TEMPO 2519/2601 14012KT 3000 TSRA OVC012 FEW023CB BKN110
Forecast period: 1900 UTC 25 June 2019 to 0100 UTC 26 June 2019
Forecast type: TEMPORARY: The following changes expected for less than half the time period
Winds: from the SE (140 degrees) at 14 MPH (12 knots; 6.2 m/s)
Visibility: 1.86 miles (2.99 km)
Ceiling: 1200 feet AGL
Clouds: overcast cloud deck at 1200 feet AGL
few clouds at 2300 feet AGL
broken clouds at 11000 feet AGL
Weather: TSRA  (rain associated with thunderstorm(s))